createdAt,value
2019-04-07T00:02:01.013Z,8.88
2019-04-07T00:04:30.635Z,6.70
2019-04-07T00:07:00.104Z,5.83
2019-04-07T00:09:29.310Z,6.05
2019-04-07T00:11:59.129Z,8.80
2019-04-07T00:14:28.619Z,8.48
2019-04-07T00:16:57.636Z,6.17
2019-04-07T00:19:27.210Z,6.10
2019-04-07T00:21:56.705Z,5.40
2019-04-07T00:24:26.735Z,5.58
2019-04-07T00:26:56.812Z,5.50
2019-04-07T00:29:26.509Z,5.60
2019-04-07T00:31:55.813Z,6.87
2019-04-07T00:34:25.016Z,5.47
2019-04-07T00:36:54.354Z,5.40
2019-04-07T00:39:23.396Z,5.83
2019-04-07T00:41:52.994Z,5.30
2019-04-07T00:44:22.487Z,5.22
2019-04-07T00:46:51.866Z,5.22
2019-04-07T00:49:21.379Z,5.45
2019-04-07T00:51:52.894Z,5.67
2019-04-07T00:54:22.654Z,5.00
2019-04-07T00:56:52.047Z,5.20
2019-04-07T00:59:21.640Z,4.87
2019-04-07T01:01:52.591Z,4.97
2019-04-07T01:04:21.575Z,5.17
2019-04-07T01:06:50.653Z,5.20
2019-04-07T01:09:19.932Z,5.22
2019-04-07T01:11:49.551Z,5.05
2019-04-07T01:14:18.971Z,5.35
2019-04-07T01:16:48.295Z,5.78
2019-04-07T01:19:17.852Z,5.20
2019-04-07T01:21:47.754Z,4.70
2019-04-07T01:24:18.732Z,9.90
2019-04-07T01:26:48.200Z,5.35
2019-04-07T01:29:18.378Z,4.70
2019-04-07T01:31:48.430Z,4.95
2019-04-07T01:34:18.449Z,5.12
2019-04-07T01:36:48.044Z,4.70
2019-04-07T01:39:18.309Z,4.55
2019-04-07T01:42:02.628Z,5.62
2019-04-07T01:44:57.328Z,5.53
2019-04-07T01:47:43.355Z,6.10
2019-04-07T01:50:19.940Z,4.63
2019-04-07T01:53:00.903Z,5.50
2019-04-07T01:55:49.774Z,4.72
2019-04-07T01:58:31.682Z,4.50
2019-04-07T02:01:18.874Z,4.20
2019-04-07T02:04:04.045Z,3.92
2019-04-07T02:06:54.028Z,4.20
2019-04-07T02:09:41.875Z,4.40
2019-04-07T02:12:23.145Z,4.22
2019-04-07T02:15:11.596Z,4.50
2019-04-07T02:18:02.465Z,4.30
2019-04-07T02:20:56.670Z,4.75
2019-04-07T02:23:34.989Z,4.20
2019-04-07T02:26:09.360Z,6.30
2019-04-07T02:28:48.368Z,4.60
2019-04-07T02:31:42.933Z,4.17
2019-04-07T02:34:25.501Z,5.07
2019-04-07T02:37:13.973Z,4.25
2019-04-07T02:40:03.549Z,3.60
2019-04-07T02:42:51.919Z,4.60
2019-04-07T02:45:30.837Z,4.25
2019-04-07T02:48:19.997Z,5.45
2019-04-07T02:51:11.264Z,5.20
2019-04-07T02:53:51.107Z,4.72
2019-04-07T02:56:43.027Z,4.90
2019-04-07T02:59:28.051Z,5.28
2019-04-07T03:02:16.152Z,4.67
2019-04-07T03:05:04.145Z,4.10
2019-04-07T03:08:09.168Z,4.35
2019-04-07T03:11:08.070Z,4.67
2019-04-07T03:13:55.595Z,4.30
2019-04-07T03:16:47.431Z,4.65
2019-04-07T03:19:26.329Z,4.20
2019-04-07T03:22:02.779Z,4.30
2019-04-07T03:24:57.926Z,4.40
2019-04-07T03:27:46.399Z,5.20
2019-04-07T03:30:24.288Z,6.75
2019-04-07T03:33:32.832Z,4.92
2019-04-07T03:36:11.525Z,4.90
2019-04-07T03:39:04.211Z,5.23
2019-04-07T03:41:59.206Z,4.67
2019-04-07T03:44:34.812Z,5.00
2019-04-07T03:47:26.536Z,5.20
2019-04-07T03:50:04.497Z,5.30
2019-04-07T03:52:51.624Z,4.50
2019-04-07T03:55:36.574Z,8.63
2019-04-07T03:58:23.553Z,4.78
2019-04-07T04:01:16.407Z,4.80
2019-04-07T04:04:07.509Z,9.38
2019-04-07T04:06:54.961Z,8.78
2019-04-07T04:09:39.742Z,10.30
2019-04-07T04:12:27.617Z,6.20
2019-04-07T04:15:10.702Z,6.97
2019-04-07T04:17:39.744Z,6.60
2019-04-07T04:20:10.401Z,5.30
2019-04-07T04:22:40.377Z,5.78
2019-04-07T04:25:10.533Z,5.20
2019-04-07T04:27:40.065Z,4.90
2019-04-07T04:30:12.010Z,5.40
2019-04-07T04:32:41.586Z,5.70
2019-04-07T04:35:11.188Z,6.12
2019-04-07T04:37:46.635Z,6.07
2019-04-07T04:40:11.825Z,7.40
2019-04-07T04:42:42.095Z,5.37
2019-04-07T04:45:11.990Z,5.60
2019-04-07T04:47:41.143Z,6.07
2019-04-07T04:50:10.252Z,6.77
2019-04-07T04:52:40.577Z,5.20
2019-04-07T04:55:11.234Z,5.05
2019-04-07T04:57:40.754Z,5.35
2019-04-07T05:00:10.388Z,6.60
2019-04-07T05:02:40.260Z,6.12
2019-04-07T05:05:09.956Z,6.53
2019-04-07T05:07:50.059Z,7.12
2019-04-07T05:10:12.270Z,9.25
2019-04-07T05:12:42.006Z,9.58
2019-04-07T05:15:11.998Z,9.98
2019-04-07T05:17:41.968Z,10.50
2019-04-07T05:20:11.473Z,12.95
2019-04-07T05:22:41.218Z,11.83
2019-04-07T05:25:10.699Z,9.13
2019-04-07T05:27:40.370Z,8.50
2019-04-07T05:30:10.183Z,5.53
2019-04-07T05:32:40.002Z,5.30
2019-04-07T05:35:09.184Z,5.70
2019-04-07T05:37:38.452Z,5.85
2019-04-07T05:40:09.132Z,5.95
2019-04-07T05:42:38.989Z,6.60
2019-04-07T05:45:08.460Z,6.53
2019-04-07T05:47:38.671Z,6.30
2019-04-07T05:50:08.499Z,6.22
2019-04-07T05:52:39.778Z,7.05
2019-04-07T05:55:09.766Z,6.65
2019-04-07T05:57:39.904Z,6.20
2019-04-07T06:00:14.222Z,6.37
2019-04-07T06:02:41.857Z,9.30
2019-04-07T06:05:12.005Z,7.90
2019-04-07T06:07:41.681Z,6.50
2019-04-07T06:10:11.316Z,7.00
2019-04-07T06:12:43.277Z,8.20
2019-04-07T06:15:11.763Z,6.90
2019-04-07T06:17:41.553Z,11.90
2019-04-07T06:20:14.261Z,6.62
2019-04-07T06:22:42.290Z,5.95
2019-04-07T06:25:11.696Z,11.10
2019-04-07T06:27:44.833Z,5.97
2019-04-07T06:30:13.056Z,5.20
2019-04-07T06:32:43.985Z,4.60
2019-04-07T06:35:14.185Z,5.58
2019-04-07T06:37:43.616Z,7.27
2019-04-07T06:40:13.893Z,4.90
2019-04-07T06:42:44.890Z,10.70
2019-04-07T06:45:20.617Z,6.95
2019-04-07T06:47:51.857Z,7.50
2019-04-07T06:50:56.812Z,4.75
2019-04-07T06:53:46.793Z,5.30
2019-04-07T06:56:19.900Z,4.70
2019-04-07T06:59:06.883Z,4.50
2019-04-07T07:01:59.359Z,4.60
2019-04-07T07:04:41.591Z,4.40
2019-04-07T07:07:28.143Z,4.72
2019-04-07T07:10:06.235Z,5.20
2019-04-07T07:12:53.372Z,5.10
2019-04-07T07:15:37.160Z,7.67
2019-04-07T07:18:34.472Z,4.22
2019-04-07T07:21:31.445Z,7.40
2019-04-07T07:24:00.199Z,4.10
2019-04-07T07:26:32.957Z,6.40
2019-04-07T07:29:01.103Z,4.85
2019-04-07T07:31:30.660Z,4.63
2019-04-07T07:34:00.336Z,4.37
2019-04-07T07:36:29.532Z,4.85
2019-04-07T07:39:02.155Z,4.80
2019-04-07T07:41:31.167Z,4.40
2019-04-07T07:44:03.610Z,4.10
2019-04-07T07:46:32.302Z,4.53
2019-04-07T07:49:02.166Z,4.60
2019-04-07T07:51:31.840Z,4.30
2019-04-07T07:54:02.013Z,6.83
2019-04-07T07:56:31.475Z,5.90
2019-04-07T07:59:01.791Z,4.60
2019-04-07T08:01:32.237Z,5.12
2019-04-07T08:04:02.046Z,4.13
2019-04-07T08:06:31.727Z,4.17
2019-04-07T08:09:10.816Z,4.93
2019-04-07T08:11:33.841Z,4.70
2019-04-07T08:14:03.434Z,4.77
2019-04-07T08:16:33.561Z,4.00
2019-04-07T08:19:03.875Z,4.37
2019-04-07T08:21:33.732Z,7.00
2019-04-07T08:24:03.653Z,4.43
2019-04-07T08:26:33.389Z,6.57
2019-04-07T08:29:05.620Z,4.47
2019-04-07T08:31:34.769Z,5.50
2019-04-07T08:34:04.050Z,4.87
2019-04-07T08:36:33.842Z,7.40
2019-04-07T08:39:05.097Z,4.33
2019-04-07T08:41:34.497Z,4.93
2019-04-07T08:44:03.564Z,4.37
2019-04-07T08:46:38.623Z,4.37
2019-04-07T08:49:04.042Z,4.83
2019-04-07T08:51:33.594Z,4.20
2019-04-07T08:54:04.562Z,5.27
2019-04-07T08:56:34.170Z,4.20
2019-04-07T08:59:03.799Z,4.50
2019-04-07T09:01:33.244Z,5.67
2019-04-07T09:04:02.668Z,5.43
2019-04-07T09:06:31.692Z,4.60
2019-04-07T09:09:01.622Z,4.47
2019-04-07T09:11:32.110Z,4.93
2019-04-07T09:14:04.219Z,7.63
2019-04-07T09:17:01.244Z,4.50
2019-04-07T09:19:50.855Z,5.27
2019-04-07T09:22:43.509Z,5.40
2019-04-07T09:25:35.842Z,4.90
2019-04-07T09:28:21.184Z,5.20
2019-04-07T09:31:07.205Z,5.13
2019-04-07T09:33:47.831Z,4.50
2019-04-07T09:36:33.554Z,4.93
2019-04-07T09:39:23.816Z,5.80
2019-04-07T09:42:16.960Z,6.00
2019-04-07T09:45:20.584Z,6.23
2019-04-07T09:48:17.684Z,6.50
2019-04-07T09:51:17.684Z,4.87
2019-04-07T09:54:06.050Z,5.70
2019-04-07T09:57:06.918Z,5.60
2019-04-07T09:59:57.124Z,5.20
2019-04-07T10:02:45.918Z,5.67
2019-04-07T10:05:34.638Z,6.03
2019-04-07T10:08:29.049Z,6.33
2019-04-07T10:11:23.033Z,7.93
2019-04-07T10:14:23.771Z,6.30
2019-04-07T10:17:12.392Z,8.77
2019-04-07T10:19:59.913Z,6.60
2019-04-07T10:22:35.539Z,8.07
2019-04-07T10:25:11.986Z,14.43
2019-04-07T10:28:12.360Z,7.97
2019-04-07T10:30:46.104Z,6.53
2019-04-07T10:33:38.921Z,6.97
2019-04-07T10:36:36.261Z,6.70
2019-04-07T10:39:24.134Z,7.20
2019-04-07T10:42:09.272Z,7.73
2019-04-07T10:44:49.333Z,8.23
2019-04-07T10:47:56.761Z,7.53
2019-04-07T10:51:00.211Z,10.37
2019-04-07T10:53:48.376Z,7.67
2019-04-07T10:56:29.442Z,6.50
2019-04-07T10:59:34.184Z,6.50
2019-04-07T11:02:21.388Z,6.60
2019-04-07T11:05:15.588Z,6.53
2019-04-07T11:08:03.976Z,6.40
2019-04-07T11:10:58.217Z,8.50
2019-04-07T11:13:53.623Z,6.33
2019-04-07T11:16:45.273Z,7.03
2019-04-07T11:19:31.075Z,7.20
2019-04-07T11:22:19.856Z,7.40
2019-04-07T11:25:06.971Z,8.27
2019-04-07T11:27:54.999Z,6.07
2019-04-07T11:30:29.420Z,6.80
2019-04-07T11:33:05.620Z,6.70
2019-04-07T11:35:39.017Z,7.00
2019-04-07T11:38:42.942Z,10.03
2019-04-07T11:41:37.620Z,6.47
2019-04-07T11:44:21.587Z,9.30
2019-04-07T11:46:56.271Z,6.63
2019-04-07T11:49:42.598Z,7.93
2019-04-07T11:52:33.315Z,7.03
2019-04-07T11:55:23.209Z,6.63
2019-04-07T11:58:26.062Z,7.40
2019-04-07T12:01:01.429Z,10.07
2019-04-07T12:03:41.752Z,7.17
2019-04-07T12:06:30.593Z,11.43
2019-04-07T12:09:16.342Z,7.27
2019-04-07T12:12:03.771Z,14.10
2019-04-07T12:14:53.137Z,7.80
2019-04-07T12:17:42.052Z,7.63
2019-04-07T12:20:17.089Z,6.93
2019-04-07T12:22:54.984Z,7.47
2019-04-07T12:25:35.085Z,8.90
2019-04-07T12:28:17.583Z,8.30
2019-04-07T12:30:55.165Z,7.50
2019-04-07T12:33:52.825Z,24.07
2019-04-07T12:36:41.958Z,7.40
2019-04-07T12:39:41.718Z,7.73
2019-04-07T12:42:28.911Z,8.00
2019-04-07T12:45:20.228Z,7.93
2019-04-07T12:48:21.182Z,7.53
2019-04-07T12:51:22.318Z,8.37
2019-04-07T12:54:23.401Z,8.07
2019-04-07T12:57:08.671Z,9.00
2019-04-07T13:00:07.126Z,9.20
2019-04-07T13:03:04.680Z,7.33
2019-04-07T13:05:41.184Z,7.70
2019-04-07T13:08:28.652Z,8.10
2019-04-07T13:11:25.404Z,8.90
2019-04-07T13:14:09.872Z,12.13
2019-04-07T13:17:00.206Z,7.63
2019-04-07T13:19:57.537Z,11.20
2019-04-07T13:22:42.136Z,7.53
2019-04-07T13:25:42.988Z,8.67
2019-04-07T13:28:27.168Z,9.20
2019-04-07T13:31:15.621Z,9.10
2019-04-07T13:34:04.667Z,9.03
2019-04-07T13:36:41.874Z,11.17
2019-04-07T13:39:30.348Z,8.77
2019-04-07T13:42:09.923Z,8.07
2019-04-07T13:44:54.691Z,7.93
2019-04-07T13:47:55.739Z,9.23
2019-04-07T13:50:34.437Z,11.83
2019-04-07T13:53:34.087Z,10.13
2019-04-07T13:56:17.640Z,8.10
2019-04-07T13:59:08.283Z,7.73
2019-04-07T14:01:52.444Z,8.60
2019-04-07T14:04:56.199Z,8.10
2019-04-07T14:07:36.028Z,11.40
2019-04-07T14:10:28.531Z,9.40
2019-04-07T14:13:23.260Z,7.87
2019-04-07T14:16:15.901Z,9.30
2019-04-07T14:19:03.595Z,9.43
2019-04-07T14:21:55.621Z,7.83
2019-04-07T14:24:32.746Z,9.27
2019-04-07T14:27:17.313Z,11.87
2019-04-07T14:30:04.666Z,9.10
2019-04-07T14:32:59.991Z,9.20
2019-04-07T14:35:45.266Z,10.23
2019-04-07T14:38:40.175Z,9.20
2019-04-07T14:41:28.083Z,12.10
2019-04-07T14:44:15.681Z,9.43
2019-04-07T14:47:16.210Z,15.13
2019-04-07T14:50:03.781Z,9.30
2019-04-07T14:52:57.104Z,12.90
2019-04-07T14:55:50.920Z,8.83
2019-04-07T14:58:31.388Z,7.60
2019-04-07T15:01:13.811Z,16.80
2019-04-07T15:03:43.811Z,14.40
2019-04-07T15:06:13.364Z,8.07
2019-04-07T15:08:56.416Z,8.37
2019-04-07T15:11:44.562Z,8.93
2019-04-07T15:14:14.878Z,14.27
2019-04-07T15:16:45.045Z,12.10
2019-04-07T15:19:34.107Z,11.20
2019-04-07T15:22:04.577Z,8.17
2019-04-07T15:24:35.904Z,9.23
2019-04-07T15:27:06.787Z,9.70
2019-04-07T15:29:41.125Z,15.60
2019-04-07T15:32:07.548Z,8.80
2019-04-07T15:34:39.540Z,11.23
2019-04-07T15:37:08.248Z,8.93
2019-04-07T15:39:38.370Z,7.67
2019-04-07T15:42:09.301Z,8.40
2019-04-07T15:44:39.699Z,8.47
2019-04-07T15:47:09.742Z,7.53
2019-04-07T15:49:39.865Z,8.60
2019-04-07T15:52:10.145Z,8.73
2019-04-07T15:54:40.302Z,13.83
2019-04-07T15:57:10.044Z,7.20
2019-04-07T15:59:39.668Z,8.60
2019-04-07T16:02:11.183Z,8.20
2019-04-07T16:04:41.810Z,8.37
2019-04-07T16:07:12.042Z,9.90
2019-04-07T16:09:51.032Z,6.90
2019-04-07T16:12:12.278Z,7.20
2019-04-07T16:14:44.933Z,7.67
2019-04-07T16:17:12.293Z,7.70
2019-04-07T16:19:44.404Z,6.53
2019-04-07T16:22:14.212Z,8.30
2019-04-07T16:24:43.517Z,6.37
2019-04-07T16:27:12.576Z,7.10
2019-04-07T16:29:41.604Z,7.03
2019-04-07T16:32:11.383Z,7.50
2019-04-07T16:34:42.416Z,7.50
2019-04-07T16:37:11.731Z,6.37
2019-04-07T16:39:41.418Z,7.13
2019-04-07T16:42:10.840Z,7.63
2019-04-07T16:44:43.254Z,8.87
2019-04-07T16:47:19.232Z,10.90
2019-04-07T16:49:46.626Z,9.63
2019-04-07T16:52:13.537Z,6.37
2019-04-07T16:54:44.418Z,7.00
2019-04-07T16:57:15.220Z,5.90
2019-04-07T16:59:44.683Z,7.80
2019-04-07T17:02:15.628Z,6.70
2019-04-07T17:04:45.154Z,15.60
2019-04-07T17:07:16.748Z,4.97
2019-04-07T17:09:45.320Z,6.70
2019-04-07T17:12:15.045Z,7.40
2019-04-07T17:14:44.816Z,6.53
2019-04-07T17:17:18.282Z,5.00
2019-04-07T17:19:45.689Z,5.60
2019-04-07T17:22:16.092Z,5.07
2019-04-07T17:24:45.523Z,4.50
2019-04-07T17:27:15.062Z,6.37
2019-04-07T17:29:44.192Z,3.20
2019-04-07T17:32:13.604Z,3.93
2019-04-07T17:34:43.766Z,8.90
2019-04-07T17:37:13.845Z,3.73
2019-04-07T17:39:48.215Z,3.43
2019-04-07T17:42:19.833Z,3.60
2019-04-07T17:45:07.967Z,4.10
2019-04-07T17:48:03.733Z,7.00
2019-04-07T17:50:55.308Z,4.07
2019-04-07T17:53:58.891Z,4.00
2019-04-07T17:56:42.840Z,8.93
2019-04-07T17:59:37.729Z,3.40
2019-04-07T18:02:17.396Z,3.70
2019-04-07T18:05:02.974Z,3.20
2019-04-07T18:07:51.932Z,3.30
2019-04-07T18:10:32.370Z,4.10
2019-04-07T18:13:22.820Z,4.83
2019-04-07T18:16:03.089Z,5.50
2019-04-07T18:18:54.194Z,4.20
2019-04-07T18:21:31.378Z,3.70
2019-04-07T18:24:29.546Z,4.10
2019-04-07T18:27:12.560Z,3.23
2019-04-07T18:30:00.626Z,3.23
2019-04-07T18:32:47.167Z,4.27
2019-04-07T18:35:38.394Z,4.87
2019-04-07T18:38:30.340Z,3.77
2019-04-07T18:41:18.711Z,3.37
2019-04-07T18:44:08.119Z,8.80
2019-04-07T18:46:52.178Z,4.57
2019-04-07T18:49:39.610Z,3.90
2019-04-07T18:52:27.717Z,6.30
2019-04-07T18:55:23.321Z,3.73
2019-04-07T18:58:16.049Z,4.67
2019-04-07T19:01:20.220Z,4.83
2019-04-07T19:04:07.339Z,4.10
2019-04-07T19:06:54.587Z,3.67
2019-04-07T19:09:42.343Z,10.90
2019-04-07T19:12:30.952Z,4.27
2019-04-07T19:15:25.597Z,3.97
2019-04-07T19:18:20.395Z,8.27
2019-04-07T19:21:12.516Z,4.50
2019-04-07T19:23:59.108Z,8.90
2019-04-07T19:26:49.788Z,5.53
2019-04-07T19:29:39.141Z,5.73
2019-04-07T19:32:31.701Z,6.27
2019-04-07T19:35:18.737Z,6.17
2019-04-07T19:38:09.780Z,5.73
2019-04-07T19:41:04.678Z,6.30
2019-04-07T19:43:58.457Z,6.73
2019-04-07T19:47:03.091Z,5.30
2019-04-07T19:50:11.104Z,6.60
2019-04-07T19:53:18.317Z,6.17
2019-04-07T19:56:00.873Z,4.03
2019-04-07T19:58:40.913Z,4.97
2019-04-07T20:01:29.172Z,4.73
2019-04-07T20:04:10.594Z,5.70
2019-04-07T20:06:59.466Z,4.90
2019-04-07T20:09:50.475Z,3.97
2019-04-07T20:12:48.242Z,9.93
2019-04-07T20:15:24.918Z,5.70
2019-04-07T20:18:12.430Z,5.00
2019-04-07T20:21:15.732Z,5.10
2019-04-07T20:24:08.795Z,6.00
2019-04-07T20:26:56.980Z,7.33
2019-04-07T20:29:43.497Z,7.73
2019-04-07T20:32:25.293Z,5.00
2019-04-07T20:35:21.767Z,5.10
2019-04-07T20:38:02.081Z,5.17
2019-04-07T20:40:46.751Z,5.03
2019-04-07T20:43:23.559Z,4.90
2019-04-07T20:46:27.473Z,4.63
2019-04-07T20:49:14.507Z,5.40
2019-04-07T20:52:08.268Z,4.87
2019-04-07T20:54:55.057Z,6.13
2019-04-07T20:57:42.675Z,6.27
2019-04-07T21:00:26.623Z,5.67
2019-04-07T21:03:18.244Z,5.50
2019-04-07T21:05:58.384Z,5.50
2019-04-07T21:08:39.968Z,4.97
2019-04-07T21:11:29.081Z,6.83
2019-04-07T21:14:06.018Z,5.20
2019-04-07T21:17:13.340Z,4.70
2019-04-07T21:20:02.022Z,5.57
2019-04-07T21:22:56.134Z,5.80
2019-04-07T21:25:39.221Z,4.40
2019-04-07T21:28:16.791Z,7.87
2019-04-07T21:31:07.188Z,4.77
2019-04-07T21:33:49.700Z,7.67
2019-04-07T21:36:32.512Z,10.33
2019-04-07T21:39:14.246Z,11.70
2019-04-07T21:42:09.262Z,14.30
2019-04-07T21:45:12.745Z,17.30
2019-04-07T21:48:01.472Z,15.63
2019-04-07T21:50:41.128Z,15.07
2019-04-07T21:53:14.947Z,17.57
2019-04-07T21:56:14.396Z,15.30
2019-04-07T21:59:01.763Z,17.20
2019-04-07T22:01:48.856Z,16.40
2019-04-07T22:04:36.893Z,16.03
2019-04-07T22:07:32.192Z,25.40
2019-04-07T22:10:01.934Z,13.97
2019-04-07T22:12:32.522Z,19.13
2019-04-07T22:15:02.425Z,16.93
2019-04-07T22:17:34.412Z,15.80
2019-04-07T22:20:03.093Z,17.80
2019-04-07T22:22:33.174Z,16.17
2019-04-07T22:25:06.102Z,16.67
2019-04-07T22:27:34.702Z,17.67
2019-04-07T22:30:07.671Z,17.40
2019-04-07T22:32:37.080Z,17.87
2019-04-07T22:35:06.994Z,15.80
2019-04-07T22:37:37.692Z,18.83
2019-04-07T22:40:13.575Z,16.30
2019-04-07T22:42:45.398Z,17.17
2019-04-07T22:45:13.728Z,17.07
2019-04-07T22:47:43.388Z,16.87
2019-04-07T22:50:12.951Z,16.33
2019-04-07T22:52:42.024Z,18.37
2019-04-07T22:55:12.262Z,19.03
2019-04-07T22:57:41.460Z,17.50
2019-04-07T23:00:19.038Z,14.30
2019-04-07T23:02:48.623Z,18.60
2019-04-07T23:05:19.135Z,20.07
2019-04-07T23:07:48.252Z,18.80
2019-04-07T23:10:17.840Z,16.23
2019-04-07T23:12:47.920Z,17.20
2019-04-07T23:15:17.110Z,16.57
2019-04-07T23:17:47.234Z,19.53
2019-04-07T23:20:17.153Z,18.50
2019-04-07T23:22:46.715Z,17.13
2019-04-07T23:25:15.726Z,13.23
2019-04-07T23:27:45.748Z,14.80
2019-04-07T23:30:17.351Z,18.03
2019-04-07T23:32:46.796Z,19.13
2019-04-07T23:35:16.709Z,15.63
2019-04-07T23:37:46.690Z,17.53
2019-04-07T23:40:16.322Z,15.47
2019-04-07T23:42:46.712Z,14.20
2019-04-07T23:45:16.571Z,15.87
2019-04-07T23:47:45.756Z,15.83
2019-04-07T23:50:15.260Z,13.53
2019-04-07T23:52:45.137Z,15.30
2019-04-07T23:55:14.956Z,13.83
2019-04-07T23:57:44.474Z,13.63
